createdAt,value
2022-12-29T00:01:25.975Z,11.10
2022-12-29T00:04:15.457Z,11.10
2022-12-29T00:07:05.507Z,11.10
2022-12-29T00:09:55.733Z,11.20
2022-12-29T00:13:01.080Z,11.30
2022-12-29T00:15:48.840Z,11.10
2022-12-29T00:18:37.222Z,11.10
2022-12-29T00:24:48.366Z,11.10
2022-12-29T00:27:55.100Z,11.00
2022-12-29T00:34:06.567Z,11.10
2022-12-29T00:36:55.669Z,11.40
2022-12-29T00:40:00.183Z,11.30
2022-12-29T00:43:07.335Z,11.30
2022-12-29T00:45:55.170Z,11.20
2022-12-29T00:49:00.016Z,11.40
2022-12-29T00:51:47.543Z,11.20
2022-12-29T00:54:36.273Z,11.30
2022-12-29T00:57:24.278Z,11.30
2022-12-29T01:00:14.251Z,11.30
2022-12-29T01:03:02.895Z,11.40
2022-12-29T01:08:38.553Z,11.30
2022-12-29T01:11:25.176Z,11.30
2022-12-29T01:14:13.104Z,11.20
2022-12-29T01:17:01.859Z,12.20
2022-12-29T01:19:49.994Z,10.50
2022-12-29T01:22:37.736Z,11.20
2022-12-29T01:25:25.903Z,11.20
2022-12-29T01:28:13.563Z,11.70
2022-12-29T01:31:02.439Z,11.10
2022-12-29T01:33:51.426Z,11.00
2022-12-29T01:36:38.654Z,10.90
2022-12-29T01:39:26.412Z,10.70
2022-12-29T01:42:18.452Z,10.50
2022-12-29T01:45:10.993Z,10.50
2022-12-29T01:48:00.156Z,10.50
2022-12-29T01:50:52.204Z,10.40
2022-12-29T01:53:40.222Z,10.40
2022-12-29T01:56:29.145Z,10.30
2022-12-29T01:59:20.507Z,10.20
2022-12-29T02:02:08.507Z,10.10
2022-12-29T02:05:04.158Z,10.10
2022-12-29T02:07:54.334Z,10.10
2022-12-29T02:10:43.033Z,10.00
2022-12-29T02:13:32.320Z,10.00
2022-12-29T02:16:28.040Z,10.00
2022-12-29T02:19:35.808Z,9.90
2022-12-29T02:22:26.296Z,9.80
2022-12-29T02:25:38.795Z,9.90
2022-12-29T02:28:55.307Z,9.90
2022-12-29T02:31:47.905Z,9.90
2022-12-29T02:34:42.346Z,9.90
2022-12-29T02:37:33.185Z,9.90
2022-12-29T02:40:26.525Z,9.90
2022-12-29T02:43:18.656Z,9.90
2022-12-29T02:46:09.365Z,9.90
2022-12-29T02:49:03.918Z,9.90
2022-12-29T02:51:54.009Z,9.90
2022-12-29T02:54:45.017Z,9.90
2022-12-29T02:57:35.504Z,9.90
2022-12-29T03:00:23.337Z,9.90
2022-12-29T03:03:17.247Z,9.80
2022-12-29T03:06:22.255Z,10.00
2022-12-29T03:09:18.760Z,10.20
2022-12-29T03:12:13.725Z,9.80
2022-12-29T03:15:21.395Z,9.80
2022-12-29T03:18:12.237Z,9.50
2022-12-29T03:21:02.907Z,9.20
2022-12-29T03:23:51.852Z,9.20
2022-12-29T03:26:39.446Z,9.10
2022-12-29T03:29:27.692Z,8.90
2022-12-29T03:32:15.682Z,9.00
2022-12-29T03:35:04.120Z,9.00
2022-12-29T03:37:54.986Z,9.00
2022-12-29T03:40:46.411Z,9.20
2022-12-29T03:43:34.278Z,9.10
2022-12-29T03:46:22.230Z,9.10
2022-12-29T03:49:10.240Z,9.50
2022-12-29T03:51:58.066Z,9.30
2022-12-29T03:54:47.266Z,9.10
2022-12-29T03:57:36.086Z,9.20
2022-12-29T04:00:28.014Z,9.20
2022-12-29T04:03:15.947Z,9.20
2022-12-29T04:06:03.797Z,9.90
2022-12-29T04:08:58.795Z,9.10
2022-12-29T04:11:46.799Z,9.10
2022-12-29T04:14:38.598Z,9.00
2022-12-29T04:17:25.907Z,9.00
2022-12-29T04:20:32.445Z,8.90
2022-12-29T04:23:23.135Z,8.90
2022-12-29T04:26:11.368Z,8.90
2022-12-29T04:29:11.747Z,9.10
2022-12-29T04:32:21.093Z,8.90
2022-12-29T04:35:11.573Z,8.80
2022-12-29T04:37:58.915Z,8.60
2022-12-29T04:40:46.868Z,8.80
2022-12-29T04:43:35.926Z,8.90
2022-12-29T04:46:43.510Z,8.80
2022-12-29T04:49:41.392Z,8.90
2022-12-29T04:52:45.808Z,9.00
2022-12-29T04:55:34.665Z,9.00
2022-12-29T04:58:23.395Z,9.00
2022-12-29T05:01:12.376Z,9.20
2022-12-29T05:03:59.943Z,9.50
2022-12-29T05:06:49.909Z,9.40
2022-12-29T05:09:38.557Z,9.60
2022-12-29T05:12:28.339Z,9.70
2022-12-29T05:15:19.807Z,9.60
2022-12-29T05:18:07.578Z,9.70
2022-12-29T05:20:55.102Z,9.60
2022-12-29T05:23:49.540Z,9.80
2022-12-29T05:26:37.053Z,10.10
2022-12-29T05:29:47.451Z,9.70
2022-12-29T05:32:35.342Z,9.60
2022-12-29T05:35:23.134Z,9.50
2022-12-29T05:38:14.411Z,9.50
2022-12-29T05:41:04.288Z,9.30
2022-12-29T05:44:17.826Z,9.30
2022-12-29T05:47:25.684Z,9.70
2022-12-29T05:50:27.605Z,10.00
2022-12-29T05:53:32.757Z,9.90
2022-12-29T05:56:23.249Z,9.90
2022-12-29T05:59:18.270Z,9.90
2022-12-29T06:02:06.055Z,10.40
2022-12-29T06:04:53.974Z,10.00
2022-12-29T06:07:42.017Z,9.90
2022-12-29T06:10:29.739Z,9.80
2022-12-29T06:13:28.646Z,9.80
2022-12-29T06:16:17.520Z,9.80
2022-12-29T06:19:05.823Z,9.80
2022-12-29T06:21:53.662Z,10.00
2022-12-29T06:24:41.112Z,10.00
2022-12-29T06:27:28.967Z,9.80
2022-12-29T06:30:18.240Z,9.60
2022-12-29T06:33:05.775Z,10.00
2022-12-29T06:35:53.184Z,10.00
2022-12-29T06:38:40.536Z,10.30
2022-12-29T06:41:32.224Z,9.90
2022-12-29T06:44:39.270Z,9.90
2022-12-29T06:47:32.305Z,10.00
2022-12-29T06:50:19.981Z,10.00
2022-12-29T06:53:08.241Z,10.00
2022-12-29T06:55:55.635Z,9.90
2022-12-29T06:58:50.135Z,10.20
2022-12-29T07:01:40.922Z,10.20
2022-12-29T07:04:29.830Z,10.30
2022-12-29T07:07:17.527Z,10.30
2022-12-29T07:10:05.781Z,10.40
2022-12-29T07:12:53.195Z,10.30
2022-12-29T07:15:43.394Z,10.20
2022-12-29T07:18:31.613Z,10.40
2022-12-29T07:21:21.558Z,10.30
2022-12-29T07:24:09.842Z,10.40
2022-12-29T07:26:57.113Z,10.40
2022-12-29T07:29:45.313Z,10.20
2022-12-29T07:32:34.948Z,9.90
2022-12-29T07:35:23.088Z,10.20
2022-12-29T07:38:12.098Z,10.10
2022-12-29T07:41:00.408Z,10.20
2022-12-29T07:43:49.005Z,10.30
2022-12-29T07:46:57.496Z,10.30
2022-12-29T07:49:46.177Z,10.10
2022-12-29T07:52:34.143Z,10.00
2022-12-29T07:55:23.912Z,9.90
2022-12-29T07:58:13.501Z,10.00
2022-12-29T08:01:01.709Z,10.10
2022-12-29T08:03:56.874Z,10.20
2022-12-29T08:06:46.556Z,10.10
2022-12-29T08:09:34.154Z,9.90
2022-12-29T08:12:31.751Z,10.10
2022-12-29T08:15:18.979Z,10.00
2022-12-29T08:18:07.086Z,10.00
2022-12-29T08:20:56.152Z,10.10
2022-12-29T08:23:43.515Z,10.10
2022-12-29T08:26:31.571Z,10.30
2022-12-29T08:29:20.664Z,10.00
2022-12-29T08:32:08.590Z,10.10
2022-12-29T08:34:55.948Z,10.10
2022-12-29T08:37:43.806Z,10.10
2022-12-29T08:40:31.310Z,10.20
2022-12-29T08:43:18.954Z,10.20
2022-12-29T08:46:07.977Z,10.20
2022-12-29T08:48:56.226Z,10.10
2022-12-29T08:54:31.315Z,10.20
2022-12-29T08:57:18.396Z,9.40
2022-12-29T09:00:31.898Z,10.40
2022-12-29T09:03:37.864Z,10.10
2022-12-29T09:06:28.340Z,10.40
2022-12-29T09:09:15.903Z,10.00
2022-12-29T09:12:03.964Z,10.20
2022-12-29T09:14:54.081Z,10.30
2022-12-29T09:17:44.979Z,10.20
2022-12-29T09:20:35.521Z,10.30
2022-12-29T09:23:23.141Z,8.20
2022-12-29T09:26:10.783Z,10.00
2022-12-29T09:28:58.666Z,10.00
2022-12-29T09:31:46.456Z,10.10
2022-12-29T09:34:34.908Z,10.20
2022-12-29T09:37:24.580Z,10.30
2022-12-29T09:40:18.495Z,10.40
2022-12-29T09:43:15.902Z,10.50
2022-12-29T09:46:10.321Z,10.60
2022-12-29T09:49:02.779Z,10.50
2022-12-29T09:51:51.891Z,10.40
2022-12-29T09:54:47.738Z,10.40
2022-12-29T09:57:42.595Z,10.60
2022-12-29T10:00:36.177Z,10.60
2022-12-29T10:03:26.539Z,10.70
2022-12-29T10:06:16.065Z,10.80
2022-12-29T10:09:10.226Z,10.70
2022-12-29T10:12:05.225Z,10.80
2022-12-29T10:14:58.389Z,10.80
2022-12-29T10:17:49.823Z,11.00
2022-12-29T10:20:40.717Z,10.70
2022-12-29T10:23:30.132Z,11.00
2022-12-29T10:26:18.310Z,10.50
2022-12-29T10:29:08.056Z,10.50
2022-12-29T10:32:00.340Z,10.20
2022-12-29T10:34:51.631Z,10.50
2022-12-29T10:37:47.020Z,10.60
2022-12-29T10:40:38.627Z,10.60
2022-12-29T10:43:28.771Z,10.60
2022-12-29T10:46:20.248Z,10.70
2022-12-29T10:51:59.300Z,10.80
2022-12-29T10:54:48.433Z,10.80
2022-12-29T10:57:37.491Z,10.90
2022-12-29T11:00:25.952Z,10.90
2022-12-29T11:03:30.931Z,10.90
2022-12-29T11:06:21.216Z,10.90
2022-12-29T11:09:12.521Z,10.80
2022-12-29T11:12:00.745Z,10.90
2022-12-29T11:14:48.932Z,11.00
2022-12-29T11:17:45.427Z,10.90
2022-12-29T11:20:42.334Z,11.00
2022-12-29T11:23:33.848Z,11.20
2022-12-29T11:26:22.212Z,11.10
2022-12-29T11:34:46.036Z,11.10
2022-12-29T11:37:40.187Z,11.10
2022-12-29T11:40:30.143Z,11.10
2022-12-29T11:43:26.225Z,11.10
2022-12-29T11:46:16.890Z,11.10
2022-12-29T11:49:05.358Z,11.00
2022-12-29T11:51:55.888Z,10.90
2022-12-29T11:54:44.993Z,10.80
2022-12-29T11:57:35.417Z,11.20
2022-12-29T12:00:26.114Z,10.80
2022-12-29T12:03:16.168Z,10.80
2022-12-29T12:06:04.181Z,10.70
2022-12-29T12:08:55.803Z,10.60
2022-12-29T12:11:46.590Z,10.60
2022-12-29T12:14:36.838Z,10.60
2022-12-29T12:17:38.625Z,10.50
2022-12-29T12:20:30.356Z,10.50
2022-12-29T12:23:28.802Z,10.50
2022-12-29T12:26:21.045Z,10.40
2022-12-29T12:32:00.272Z,10.50
2022-12-29T12:34:48.614Z,10.40
2022-12-29T12:37:42.366Z,10.40
2022-12-29T12:43:27.884Z,10.50
2022-12-29T12:46:33.286Z,10.50
2022-12-29T12:52:17.018Z,10.30
2022-12-29T12:55:17.384Z,10.40
2022-12-29T12:58:09.301Z,10.50
2022-12-29T13:01:09.264Z,10.50
2022-12-29T13:06:50.588Z,10.70
2022-12-29T13:12:32.233Z,10.70
2022-12-29T13:15:24.077Z,10.70
2022-12-29T13:21:02.098Z,10.80
2022-12-29T13:23:55.084Z,10.70
2022-12-29T13:26:48.265Z,10.60
2022-12-29T13:29:41.946Z,10.60
2022-12-29T13:32:36.296Z,10.10
2022-12-29T13:35:35.077Z,10.60
2022-12-29T13:38:25.975Z,10.50
2022-12-29T13:41:15.343Z,10.50
2022-12-29T13:44:04.109Z,10.40
2022-12-29T13:46:55.397Z,10.30
2022-12-29T13:49:43.009Z,10.60
2022-12-29T13:52:36.341Z,10.20
2022-12-29T13:55:27.479Z,9.60
2022-12-29T13:58:20.546Z,10.00
2022-12-29T14:01:12.247Z,10.50
2022-12-29T14:04:02.723Z,9.90
2022-12-29T14:09:44.759Z,10.10
2022-12-29T14:12:38.138Z,10.20
2022-12-29T14:15:26.542Z,10.20
2022-12-29T14:18:15.309Z,10.20
2022-12-29T14:21:10.286Z,10.00
2022-12-29T14:24:03.165Z,9.80
2022-12-29T14:26:50.898Z,9.70
2022-12-29T14:29:46.626Z,12.20
2022-12-29T14:32:38.475Z,9.40
2022-12-29T14:35:43.384Z,9.10
2022-12-29T14:38:34.024Z,9.10
2022-12-29T14:41:40.057Z,10.40
2022-12-29T14:44:28.397Z,9.60
2022-12-29T14:47:20.537Z,9.60
2022-12-29T14:50:09.557Z,9.60
2022-12-29T14:53:03.143Z,10.50
2022-12-29T14:55:57.882Z,10.00
2022-12-29T14:58:47.598Z,9.70
2022-12-29T15:01:42.460Z,9.70
2022-12-29T15:04:35.034Z,9.70
2022-12-29T15:10:17.352Z,9.80
2022-12-29T15:13:08.279Z,9.80
2022-12-29T15:15:56.227Z,9.80
2022-12-29T15:18:44.681Z,9.80
2022-12-29T15:21:34.933Z,9.80
2022-12-29T15:24:22.563Z,9.70
2022-12-29T15:30:02.210Z,9.60
2022-12-29T15:32:51.531Z,9.40
2022-12-29T15:35:39.880Z,9.10
2022-12-29T15:38:37.260Z,8.70
2022-12-29T15:41:33.427Z,8.10
2022-12-29T15:44:23.110Z,7.70
2022-12-29T15:47:16.809Z,7.30
2022-12-29T15:50:06.096Z,7.10
2022-12-29T15:52:53.659Z,7.00
2022-12-29T15:55:42.486Z,6.90
2022-12-29T15:58:30.892Z,7.00
2022-12-29T16:01:19.969Z,6.90
2022-12-29T16:04:13.311Z,6.90
2022-12-29T16:07:02.322Z,6.80
2022-12-29T16:09:50.832Z,6.70
2022-12-29T16:12:39.312Z,6.70
2022-12-29T16:15:29.137Z,6.70
2022-12-29T16:18:23.919Z,6.70
2022-12-29T16:21:19.240Z,6.60
2022-12-29T16:24:08.741Z,6.50
2022-12-29T16:26:57.927Z,6.50
2022-12-29T16:29:45.573Z,6.50
2022-12-29T16:32:33.993Z,6.50
2022-12-29T16:35:22.363Z,6.40
2022-12-29T16:38:15.715Z,6.30
2022-12-29T16:41:04.285Z,6.20
2022-12-29T16:44:11.678Z,6.20
2022-12-29T16:47:15.156Z,6.40
2022-12-29T16:50:13.779Z,6.20
2022-12-29T16:53:01.270Z,6.20
2022-12-29T16:55:52.736Z,6.20
2022-12-29T16:58:41.490Z,6.20
2022-12-29T17:01:31.459Z,6.20
2022-12-29T17:04:19.285Z,6.10
2022-12-29T17:07:13.878Z,6.10
2022-12-29T17:10:01.877Z,6.10
2022-12-29T17:12:51.086Z,6.20
2022-12-29T17:15:38.841Z,6.10
2022-12-29T17:18:26.282Z,6.20
2022-12-29T17:21:13.987Z,6.40
2022-12-29T17:24:02.313Z,6.40
2022-12-29T17:26:51.123Z,6.50
2022-12-29T17:29:42.427Z,6.50
2022-12-29T17:32:32.771Z,6.60
2022-12-29T17:35:21.313Z,6.40
2022-12-29T17:38:18.300Z,6.80
2022-12-29T17:41:05.862Z,7.00
2022-12-29T17:43:53.479Z,6.90
2022-12-29T17:46:42.234Z,7.00
2022-12-29T17:49:29.674Z,7.20
2022-12-29T17:52:18.205Z,7.30
2022-12-29T17:55:06.671Z,7.40
2022-12-29T17:57:55.310Z,7.10
2022-12-29T18:00:42.725Z,7.20
2022-12-29T18:03:33.493Z,7.30
2022-12-29T18:06:21.141Z,7.30
2022-12-29T18:09:10.773Z,7.20
2022-12-29T18:11:58.698Z,7.10
2022-12-29T18:14:45.907Z,7.00
2022-12-29T18:17:33.621Z,7.00
2022-12-29T18:20:23.289Z,7.00
2022-12-29T18:23:16.903Z,7.00
2022-12-29T18:26:05.892Z,6.90
2022-12-29T18:28:53.884Z,7.00
2022-12-29T18:31:41.664Z,6.90
2022-12-29T18:34:29.519Z,7.00
2022-12-29T18:37:18.354Z,7.00
2022-12-29T18:40:08.459Z,7.00
2022-12-29T18:42:56.502Z,7.00
2022-12-29T18:45:46.052Z,7.00
2022-12-29T18:48:33.386Z,7.10
2022-12-29T18:51:21.666Z,7.10
2022-12-29T18:54:15.086Z,7.10
2022-12-29T18:57:02.860Z,7.10
2022-12-29T18:59:50.264Z,7.00
2022-12-29T19:02:38.562Z,7.10
2022-12-29T19:05:28.191Z,7.00
2022-12-29T19:11:05.613Z,7.10
2022-12-29T19:13:53.422Z,7.30
2022-12-29T19:22:16.939Z,7.40
2022-12-29T19:25:04.390Z,7.40
2022-12-29T19:27:54.347Z,7.20
2022-12-29T19:30:41.736Z,7.10
2022-12-29T19:33:29.696Z,7.10
2022-12-29T19:36:19.294Z,7.40
2022-12-29T19:39:07.198Z,7.10
2022-12-29T19:41:59.080Z,7.10
2022-12-29T19:44:51.169Z,7.00
2022-12-29T19:47:38.747Z,6.50
2022-12-29T19:50:28.661Z,7.10
2022-12-29T19:53:16.854Z,7.10
2022-12-29T19:56:05.190Z,7.20
2022-12-29T19:58:52.886Z,7.20
2022-12-29T20:01:42.077Z,7.20
2022-12-29T20:04:29.653Z,7.10
2022-12-29T20:07:17.821Z,7.10
2022-12-29T20:10:06.430Z,7.10
2022-12-29T20:12:53.962Z,7.20
2022-12-29T20:15:45.228Z,7.10
2022-12-29T20:18:35.365Z,7.10
2022-12-29T20:21:24.122Z,7.00
2022-12-29T20:24:11.545Z,7.10
2022-12-29T20:27:00.736Z,7.10
2022-12-29T20:29:48.630Z,6.20
2022-12-29T20:32:38.794Z,7.40
2022-12-29T20:35:28.311Z,7.20
2022-12-29T20:38:15.630Z,7.20
2022-12-29T20:41:03.239Z,7.20
2022-12-29T20:43:50.992Z,7.30
2022-12-29T20:46:43.549Z,7.30
2022-12-29T20:49:30.912Z,7.20
2022-12-29T20:52:22.691Z,7.20
2022-12-29T20:55:10.789Z,7.00
2022-12-29T20:58:23.085Z,4.50
2022-12-29T21:01:07.457Z,7.10
2022-12-29T21:03:54.899Z,4.60
2022-12-29T21:06:42.584Z,7.10
2022-12-29T21:09:31.249Z,7.10
2022-12-29T21:12:18.762Z,7.10
2022-12-29T21:15:06.695Z,8.30
2022-12-29T21:17:54.142Z,7.30
2022-12-29T21:20:41.503Z,7.20
2022-12-29T21:23:29.817Z,7.10
2022-12-29T21:26:20.787Z,7.10
2022-12-29T21:29:10.559Z,7.00
2022-12-29T21:32:05.551Z,8.50
2022-12-29T21:34:53.481Z,7.00
2022-12-29T21:37:41.266Z,6.90
2022-12-29T21:40:28.526Z,7.00
2022-12-29T21:43:17.589Z,6.90
2022-12-29T21:46:06.681Z,6.90
2022-12-29T21:48:54.377Z,6.80
2022-12-29T21:51:51.334Z,6.90
2022-12-29T21:54:56.558Z,6.90
2022-12-29T21:58:01.333Z,6.90
2022-12-29T22:01:07.943Z,7.00
2022-12-29T22:04:13.316Z,7.00
2022-12-29T22:07:19.859Z,6.90
2022-12-29T22:10:25.906Z,6.80
2022-12-29T22:13:16.367Z,6.60
2022-12-29T22:16:06.227Z,6.60
2022-12-29T22:18:53.996Z,6.60
2022-12-29T22:21:41.080Z,6.60
2022-12-29T22:24:29.324Z,6.60
2022-12-29T22:27:17.689Z,6.50
2022-12-29T22:30:05.717Z,6.50
2022-12-29T22:32:54.477Z,6.40
2022-12-29T22:35:41.708Z,6.50
2022-12-29T22:38:29.517Z,6.50
2022-12-29T22:41:17.423Z,6.50
2022-12-29T22:44:05.136Z,6.70
2022-12-29T22:46:52.471Z,6.50
2022-12-29T22:49:41.580Z,6.40
2022-12-29T22:52:28.993Z,6.40
2022-12-29T22:55:18.935Z,6.50
2022-12-29T22:58:07.379Z,6.40
2022-12-29T23:00:55.142Z,6.50
2022-12-29T23:03:43.395Z,6.70
2022-12-29T23:06:33.165Z,6.50
2022-12-29T23:09:21.390Z,7.20
2022-12-29T23:12:08.677Z,6.30
2022-12-29T23:14:56.676Z,6.40
2022-12-29T23:17:44.342Z,6.40
2022-12-29T23:20:31.836Z,6.30
2022-12-29T23:23:48.511Z,6.40
2022-12-29T23:26:37.839Z,6.30
2022-12-29T23:29:25.423Z,6.20
2022-12-29T23:32:12.818Z,6.10
2022-12-29T23:35:00.299Z,7.50
2022-12-29T23:37:48.418Z,6.20
2022-12-29T23:40:37.921Z,6.40
2022-12-29T23:43:25.296Z,6.70
2022-12-29T23:46:14.182Z,5.80
2022-12-29T23:49:02.354Z,5.80
2022-12-29T23:51:51.190Z,5.70
2022-12-29T23:54:39.139Z,5.60
2022-12-29T23:57:28.582Z,5.70
